createdAt,value
2019-05-19T00:01:35.610Z,98666.41
2019-05-19T00:04:06.908Z,98664.48
2019-05-19T00:06:38.001Z,98664.08
2019-05-19T00:09:09.544Z,98660.31
2019-05-19T00:11:40.649Z,98663.50
2019-05-19T00:14:12.395Z,98656.02
2019-05-19T00:16:43.255Z,98656.92
2019-05-19T00:19:25.747Z,98658.87
2019-05-19T00:21:46.640Z,98664.66
2019-05-19T00:24:17.387Z,98666.19
2019-05-19T00:26:48.450Z,98666.59
2019-05-19T00:29:19.278Z,98670.41
2019-05-19T00:31:50.060Z,98664.68
2019-05-19T00:34:20.811Z,98656.66
2019-05-19T00:36:51.731Z,98653.67
2019-05-19T00:39:22.754Z,98647.33
2019-05-19T00:41:53.888Z,98647.23
2019-05-19T00:44:24.658Z,98642.86
2019-05-19T00:50:30.555Z,98635.31
2019-05-19T00:53:13.748Z,98632.80
2019-05-19T00:56:24.282Z,98629.33
2019-05-19T00:58:55.490Z,98632.28
2019-05-19T01:01:26.324Z,98624.78
2019-05-19T01:03:57.484Z,98623.69
2019-05-19T01:06:30.370Z,98615.50
2019-05-19T01:09:01.107Z,98616.97
2019-05-19T01:11:33.941Z,98604.91
2019-05-19T01:14:05.076Z,98608.90
2019-05-19T01:16:36.279Z,98608.22
2019-05-19T01:19:08.335Z,98608.22
2019-05-19T01:21:39.862Z,98600.75
2019-05-19T01:24:10.900Z,98604.04
2019-05-19T01:26:41.669Z,98602.22
2019-05-19T01:29:12.780Z,98603.30
2019-05-19T01:31:44.122Z,98601.66
2019-05-19T01:34:14.908Z,98596.76
2019-05-19T01:36:45.679Z,98589.25
2019-05-19T01:39:16.467Z,98593.20
2019-05-19T01:41:47.239Z,98590.91
2019-05-19T01:44:18.191Z,98597.41
2019-05-19T01:46:50.180Z,98595.59
2019-05-19T01:49:21.266Z,98591.55
2019-05-19T01:51:53.255Z,98586.17
2019-05-19T01:54:24.034Z,98593.20
2019-05-19T01:56:54.812Z,98591.55
2019-05-19T01:59:25.835Z,98591.89
2019-05-19T02:01:57.591Z,98587.09
2019-05-19T02:04:28.619Z,98592.11
2019-05-19T02:06:59.858Z,98593.11
2019-05-19T02:09:31.111Z,98597.66
2019-05-19T02:12:01.884Z,98606.12
2019-05-19T02:14:32.674Z,98605.16
2019-05-19T02:17:05.186Z,98611.23
2019-05-19T02:19:37.675Z,98610.53
2019-05-19T02:22:08.931Z,98611.52
2019-05-19T02:24:39.788Z,98607.27
2019-05-19T02:27:10.814Z,98607.63
2019-05-19T02:29:41.890Z,98612.95
2019-05-19T02:32:13.169Z,98612.59
2019-05-19T02:34:44.017Z,98614.50
2019-05-19T02:37:14.789Z,98612.38
2019-05-19T02:39:45.644Z,98616.63
2019-05-19T02:42:17.121Z,98611.24
2019-05-19T02:44:49.893Z,98613.98
2019-05-19T02:47:21.759Z,98609.07
2019-05-19T02:49:52.826Z,98615.57
2019-05-19T02:52:24.168Z,98607.45
2019-05-19T02:54:55.569Z,98600.14
2019-05-19T02:57:26.964Z,98595.70
2019-05-19T02:59:58.381Z,98598.97
2019-05-19T03:02:29.978Z,98598.84
2019-05-19T03:05:00.807Z,98596.07
2019-05-19T03:07:31.624Z,98601.75
2019-05-19T03:10:02.670Z,98598.42
2019-05-19T03:12:33.710Z,98607.57
2019-05-19T03:15:04.877Z,98614.66
2019-05-19T03:17:35.726Z,98609.78
2019-05-19T03:20:06.678Z,98609.17
2019-05-19T03:22:37.448Z,98610.52
2019-05-19T03:25:09.161Z,98617.74
2019-05-19T03:27:39.928Z,98618.04
2019-05-19T03:30:28.631Z,98618.86
2019-05-19T03:33:01.363Z,98620.95
2019-05-19T03:35:32.830Z,98622.78
2019-05-19T03:38:03.704Z,98627.67
2019-05-19T03:40:34.938Z,98628.67
2019-05-19T03:43:06.087Z,98629.51
2019-05-19T03:45:36.863Z,98630.73
2019-05-19T03:48:08.028Z,98630.47
2019-05-19T03:50:39.060Z,98630.19
2019-05-19T03:56:18.980Z,98629.94
2019-05-19T03:58:49.787Z,98631.67
2019-05-19T04:01:59.150Z,98634.63
2019-05-19T04:04:41.899Z,98631.89
2019-05-19T04:07:12.691Z,98635.66
2019-05-19T04:09:43.461Z,98637.36
2019-05-19T04:12:14.743Z,98639.31
2019-05-19T04:14:45.764Z,98642.13
2019-05-19T04:17:16.793Z,98632.58
2019-05-19T04:19:47.568Z,98639.77
2019-05-19T04:22:18.424Z,98640.46
2019-05-19T04:24:49.527Z,98644.58
2019-05-19T04:27:20.550Z,98636.63
2019-05-19T04:29:51.591Z,98641.53
2019-05-19T04:32:22.800Z,98644.10
2019-05-19T04:34:53.788Z,98638.92
2019-05-19T04:37:25.149Z,98633.85
2019-05-19T04:39:56.151Z,98632.75
2019-05-19T04:42:27.184Z,98633.47
2019-05-19T04:44:58.073Z,98635.80
2019-05-19T04:47:28.893Z,98638.77
2019-05-19T04:49:59.674Z,98635.23
2019-05-19T04:52:31.709Z,98642.73
2019-05-19T04:55:02.734Z,98651.94
2019-05-19T04:57:33.615Z,98652.14
2019-05-19T05:00:05.054Z,98657.23
2019-05-19T05:06:22.234Z,98660.97
2019-05-19T05:08:53.504Z,98653.69
2019-05-19T05:11:24.571Z,98648.34
2019-05-19T05:13:55.686Z,98649.16
2019-05-19T05:25:21.705Z,98654.11
2019-05-19T05:28:13.925Z,98657.72
2019-05-19T05:34:13.681Z,98664.91
2019-05-19T05:37:04.474Z,98661.83
2019-05-19T05:39:35.410Z,98661.03
2019-05-19T05:42:06.354Z,98658.73
2019-05-19T05:44:37.170Z,98656.12
2019-05-19T05:47:07.973Z,98654.88
2019-05-19T05:49:39.578Z,98654.72
2019-05-19T05:52:10.604Z,98657.80
2019-05-19T05:54:41.635Z,98644.19
2019-05-19T05:57:12.969Z,98661.91
2019-05-19T05:59:44.240Z,98661.91
2019-05-19T06:02:15.296Z,98663.07
2019-05-19T06:04:46.251Z,98654.80
2019-05-19T06:07:17.265Z,98656.39
2019-05-19T06:09:48.085Z,98655.08
2019-05-19T06:12:19.169Z,98652.59
2019-05-19T06:14:50.077Z,98655.69
2019-05-19T06:17:20.885Z,98656.20
2019-05-19T06:19:51.939Z,98651.78
2019-05-19T06:22:23.684Z,98641.53
2019-05-19T06:24:54.713Z,98647.42
2019-05-19T06:27:26.060Z,98645.79
2019-05-19T06:29:56.842Z,98651.29
2019-05-19T06:32:49.231Z,98651.97
2019-05-19T06:35:20.168Z,98661.13
2019-05-19T06:37:50.951Z,98651.78
2019-05-19T06:40:22.075Z,98654.73
2019-05-19T06:42:52.925Z,98661.02
2019-05-19T06:45:24.156Z,98657.64
2019-05-19T06:47:55.246Z,98661.88
2019-05-19T06:50:26.365Z,98659.08
2019-05-19T06:53:12.934Z,98660.73
2019-05-19T06:55:30.282Z,98659.09
2019-05-19T06:58:01.309Z,98659.31
2019-05-19T07:00:32.185Z,98655.68
2019-05-19T07:03:03.109Z,98657.63
2019-05-19T07:05:33.861Z,98655.88
2019-05-19T07:08:04.711Z,98658.95
2019-05-19T07:10:35.822Z,98668.14
2019-05-19T07:13:07.153Z,98660.02
2019-05-19T07:15:38.471Z,98663.14
2019-05-19T07:18:09.561Z,98666.36
2019-05-19T07:20:40.498Z,98667.02
2019-05-19T07:23:11.361Z,98664.55
2019-05-19T07:25:42.484Z,98662.30
2019-05-19T07:28:13.785Z,98655.95
2019-05-19T07:30:44.636Z,98659.99
2019-05-19T07:33:15.509Z,98655.38
2019-05-19T07:35:46.856Z,98663.62
2019-05-19T07:38:17.631Z,98660.37
2019-05-19T07:40:48.567Z,98654.33
2019-05-19T07:43:19.696Z,98659.32
2019-05-19T07:45:50.450Z,98656.84
2019-05-19T07:48:21.229Z,98657.97
2019-05-19T07:50:52.267Z,98658.08
2019-05-19T07:53:23.352Z,98653.77
2019-05-19T07:55:54.144Z,98651.53
2019-05-19T07:58:25.159Z,98659.03
2019-05-19T08:00:57.168Z,98654.61
2019-05-19T08:03:28.492Z,98648.37
2019-05-19T08:05:59.294Z,98649.36
2019-05-19T08:08:30.315Z,98648.03
2019-05-19T08:11:01.847Z,98654.23
2019-05-19T08:13:33.950Z,98647.48
2019-05-19T08:16:04.889Z,98645.35
2019-05-19T08:18:36.142Z,98644.03
2019-05-19T08:21:06.991Z,98644.97
2019-05-19T08:23:37.930Z,98639.38
2019-05-19T08:26:08.753Z,98640.21
2019-05-19T08:28:39.525Z,98642.00
2019-05-19T08:31:10.388Z,98645.09
2019-05-19T08:33:41.441Z,98647.41
2019-05-19T08:36:12.316Z,98650.95
2019-05-19T08:38:44.111Z,98647.67
2019-05-19T08:41:14.853Z,98642.84
2019-05-19T08:43:45.624Z,98646.52
2019-05-19T08:46:16.487Z,98646.52
2019-05-19T08:48:47.350Z,98649.45
2019-05-19T08:51:18.469Z,98643.33
2019-05-19T08:53:49.256Z,98639.09
2019-05-19T08:56:20.053Z,98643.40
2019-05-19T08:59:10.158Z,98643.20
2019-05-19T09:02:01.043Z,98638.22
2019-05-19T09:05:10.619Z,98629.91
2019-05-19T09:08:01.048Z,98629.04
2019-05-19T09:10:31.968Z,98622.91
2019-05-19T09:13:02.831Z,98625.91
2019-05-19T09:15:33.860Z,98626.92
2019-05-19T09:18:04.729Z,98618.83
2019-05-19T09:20:36.605Z,98623.11
2019-05-19T09:23:07.479Z,98622.80
2019-05-19T09:25:38.687Z,98621.51
2019-05-19T09:28:09.952Z,98627.56
2019-05-19T09:30:40.985Z,98618.11
2019-05-19T09:33:12.273Z,98620.05
2019-05-19T09:35:43.127Z,98618.12
2019-05-19T09:38:14.167Z,98617.26
2019-05-19T09:40:44.948Z,98611.84
2019-05-19T09:43:15.744Z,98615.39
2019-05-19T09:45:46.756Z,98608.13
2019-05-19T09:48:18.794Z,98604.13
2019-05-19T09:50:49.868Z,98599.55
2019-05-19T09:53:20.917Z,98599.69
2019-05-19T09:55:52.021Z,98601.10
2019-05-19T09:58:22.820Z,98593.28
2019-05-19T10:00:53.666Z,98593.45
2019-05-19T10:03:24.782Z,98588.88
2019-05-19T10:05:56.528Z,98592.65
2019-05-19T10:08:32.404Z,98591.37
2019-05-19T10:11:50.049Z,98589.42
2019-05-19T10:14:21.313Z,98585.50
2019-05-19T10:16:52.559Z,98586.73
2019-05-19T10:19:23.588Z,98585.97
2019-05-19T10:21:54.744Z,98588.22
2019-05-19T10:24:25.616Z,98585.13
2019-05-19T10:26:56.944Z,98582.11
2019-05-19T10:29:28.057Z,98586.16
2019-05-19T10:31:58.866Z,98593.86
2019-05-19T10:34:30.298Z,98582.90
2019-05-19T10:37:02.624Z,98581.61
2019-05-19T10:39:33.749Z,98585.57
2019-05-19T10:42:04.599Z,98580.02
2019-05-19T10:44:35.716Z,98578.91
2019-05-19T10:47:06.588Z,98579.12
2019-05-19T10:49:37.459Z,98579.25
2019-05-19T10:52:08.554Z,98578.73
2019-05-19T10:54:39.643Z,98568.54
2019-05-19T10:57:10.663Z,98570.05
2019-05-19T10:59:41.750Z,98569.80
2019-05-19T11:02:12.857Z,98574.35
2019-05-19T11:04:43.882Z,98569.86
2019-05-19T11:07:14.974Z,98572.23
2019-05-19T11:09:45.835Z,98563.75
2019-05-19T11:12:16.858Z,98571.59
2019-05-19T11:14:47.712Z,98571.79
2019-05-19T11:17:18.809Z,98565.97
2019-05-19T11:19:49.673Z,98566.48
2019-05-19T11:22:20.678Z,98564.08
2019-05-19T11:24:53.034Z,98566.36
2019-05-19T11:27:24.037Z,98571.22
2019-05-19T11:29:55.157Z,98563.59
2019-05-19T11:32:25.955Z,98559.54
2019-05-19T11:34:56.958Z,98559.94
2019-05-19T11:37:28.215Z,98562.95
2019-05-19T11:39:59.007Z,98564.11
2019-05-19T11:42:29.773Z,98562.80
2019-05-19T11:45:01.067Z,98566.69
2019-05-19T11:47:31.905Z,98559.56
2019-05-19T11:50:02.694Z,98564.64
2019-05-19T11:52:33.454Z,98563.06
2019-05-19T11:55:04.747Z,98563.59
2019-05-19T11:57:35.499Z,98566.25
2019-05-19T12:00:06.476Z,98561.77
2019-05-19T12:02:38.252Z,98556.94
2019-05-19T12:05:09.133Z,98552.03
2019-05-19T12:07:39.899Z,98560.14
2019-05-19T12:10:11.137Z,98559.44
2019-05-19T12:12:41.974Z,98559.48
2019-05-19T12:15:13.993Z,98561.02
2019-05-19T12:17:44.869Z,98554.38
2019-05-19T12:20:15.993Z,98548.72
2019-05-19T12:22:47.079Z,98539.72
2019-05-19T12:25:18.330Z,98541.36
2019-05-19T12:27:49.176Z,98540.93
2019-05-19T12:30:21.027Z,98537.70
2019-05-19T12:32:51.902Z,98533.54
2019-05-19T12:35:22.811Z,98536.67
2019-05-19T12:37:54.030Z,98536.02
2019-05-19T12:40:25.089Z,98533.31
2019-05-19T12:42:55.958Z,98522.13
2019-05-19T12:45:27.054Z,98526.33
2019-05-19T12:47:58.867Z,98519.94
2019-05-19T12:50:29.934Z,98522.00
2019-05-19T12:53:00.798Z,98522.41
2019-05-19T12:55:31.791Z,98525.62
2019-05-19T12:58:02.573Z,98520.62
2019-05-19T13:00:33.822Z,98517.62
2019-05-19T13:03:04.693Z,98515.34
2019-05-19T13:05:35.681Z,98509.23
2019-05-19T13:08:06.777Z,98514.64
2019-05-19T13:10:37.609Z,98515.48
2019-05-19T13:13:27.882Z,98509.70
2019-05-19T13:15:58.954Z,98514.90
2019-05-19T13:18:29.987Z,98512.38
2019-05-19T13:21:00.853Z,98507.41
2019-05-19T13:23:31.631Z,98504.35
2019-05-19T13:26:02.646Z,98487.67
2019-05-19T13:28:33.648Z,98484.78
2019-05-19T13:31:04.735Z,98484.16
2019-05-19T13:33:35.529Z,98473.20
2019-05-19T13:36:25.899Z,98473.67
2019-05-19T13:39:16.047Z,98469.87
2019-05-19T13:41:46.890Z,98462.50
2019-05-19T13:44:18.179Z,98467.25
2019-05-19T13:46:49.190Z,98466.31
2019-05-19T13:49:20.301Z,98458.26
2019-05-19T13:51:51.069Z,98462.23
2019-05-19T13:54:21.852Z,98462.64
2019-05-19T13:56:52.727Z,98455.19
2019-05-19T13:59:23.652Z,98457.11
2019-05-19T14:02:13.986Z,98449.52
2019-05-19T14:04:45.087Z,98451.71
2019-05-19T14:07:15.861Z,98446.22
2019-05-19T14:09:46.715Z,98445.91
2019-05-19T14:12:17.819Z,98443.02
2019-05-19T14:14:48.812Z,98439.19
2019-05-19T14:17:20.168Z,98440.54
2019-05-19T14:19:50.927Z,98436.68
2019-05-19T14:22:21.786Z,98440.93
2019-05-19T14:24:55.139Z,98436.09
2019-05-19T14:27:30.256Z,98439.06
2019-05-19T14:29:59.182Z,98431.73
2019-05-19T14:32:30.938Z,98436.52
2019-05-19T14:35:02.164Z,98430.56
2019-05-19T14:37:43.674Z,98432.71
2019-05-19T14:44:08.858Z,98431.19
2019-05-19T14:46:39.728Z,98427.98
2019-05-19T14:49:10.497Z,98424.26
2019-05-19T14:51:41.334Z,98424.14
2019-05-19T14:54:12.146Z,98423.11
2019-05-19T14:56:42.898Z,98437.72
2019-05-19T14:59:13.744Z,98428.91
2019-05-19T15:01:44.658Z,98428.69
2019-05-19T15:04:15.930Z,98426.83
2019-05-19T15:06:46.933Z,98426.80
2019-05-19T15:09:18.013Z,98415.23
2019-05-19T15:11:49.017Z,98415.64
2019-05-19T15:14:20.297Z,98421.25
2019-05-19T15:16:51.319Z,98417.77
2019-05-19T15:19:22.347Z,98408.58
2019-05-19T15:21:53.205Z,98409.77
2019-05-19T15:24:23.991Z,98413.12
2019-05-19T15:27:28.156Z,98400.59
2019-05-19T15:30:14.008Z,98401.14
2019-05-19T15:32:55.518Z,98402.36
2019-05-19T15:35:26.314Z,98406.34
2019-05-19T15:38:16.760Z,98402.78
2019-05-19T15:41:26.155Z,98396.86
2019-05-19T15:43:58.802Z,98399.00
2019-05-19T15:46:29.598Z,98399.27
2019-05-19T15:49:00.639Z,98397.61
2019-05-19T15:51:37.358Z,98398.20
2019-05-19T15:54:05.259Z,98389.81
2019-05-19T15:56:36.791Z,98394.44
2019-05-19T15:59:08.165Z,98389.80
2019-05-19T16:01:38.976Z,98393.13
2019-05-19T16:04:10.521Z,98394.97
2019-05-19T16:06:41.517Z,98405.42
2019-05-19T16:09:12.714Z,98399.58
2019-05-19T16:11:43.732Z,98405.90
2019-05-19T16:14:14.743Z,98403.33
2019-05-19T16:16:45.507Z,98398.94
2019-05-19T16:19:16.367Z,98403.31
2019-05-19T16:21:47.626Z,98395.50
2019-05-19T16:24:18.445Z,98397.79
2019-05-19T16:26:49.406Z,98386.85
2019-05-19T16:29:20.431Z,98386.50
2019-05-19T16:31:51.526Z,98386.97
2019-05-19T16:34:22.389Z,98399.02
2019-05-19T16:36:53.585Z,98398.16
2019-05-19T16:39:24.604Z,98400.61
2019-05-19T16:41:55.617Z,98405.44
2019-05-19T16:44:26.713Z,98398.29
2019-05-19T16:46:57.480Z,98398.78
2019-05-19T16:49:28.519Z,98401.09
2019-05-19T16:51:59.528Z,98404.36
2019-05-19T16:54:34.979Z,98405.23
2019-05-19T16:57:05.908Z,98405.01
2019-05-19T16:59:36.681Z,98401.87
2019-05-19T17:02:07.521Z,98406.85
2019-05-19T17:04:38.534Z,98398.73
2019-05-19T17:07:10.099Z,98404.41
2019-05-19T17:09:41.397Z,98399.66
2019-05-19T17:12:12.175Z,98398.19
2019-05-19T17:14:43.253Z,98399.93
2019-05-19T17:17:14.243Z,98400.95
2019-05-19T17:19:45.257Z,98397.89
2019-05-19T17:22:16.029Z,98397.35
2019-05-19T17:24:47.383Z,98386.07
2019-05-19T17:27:18.231Z,98393.52
2019-05-19T17:29:49.252Z,98388.42
2019-05-19T17:32:20.015Z,98382.73
2019-05-19T17:34:51.076Z,98384.41
2019-05-19T17:37:22.086Z,98390.98
2019-05-19T17:39:53.398Z,98387.97
2019-05-19T17:42:24.159Z,98391.19
2019-05-19T17:44:58.853Z,98390.21
2019-05-19T17:47:27.837Z,98397.41
2019-05-19T17:49:59.095Z,98399.89
2019-05-19T17:52:30.193Z,98408.14
2019-05-19T17:55:01.277Z,98405.55
2019-05-19T17:57:33.183Z,98403.92
2019-05-19T18:00:05.281Z,98409.08
2019-05-19T18:02:36.123Z,98414.52
2019-05-19T18:05:07.079Z,98419.22
2019-05-19T18:07:38.457Z,98419.40
2019-05-19T18:10:09.663Z,98421.98
2019-05-19T18:12:40.699Z,98416.91
2019-05-19T18:15:30.810Z,98426.56
2019-05-19T18:20:51.681Z,98439.72
2019-05-19T18:23:24.128Z,98438.87
2019-05-19T18:25:56.853Z,98441.45
2019-05-19T18:28:27.930Z,98451.34
2019-05-19T18:30:59.010Z,98454.05
2019-05-19T18:33:51.040Z,98452.98
2019-05-19T18:36:41.087Z,98459.47
2019-05-19T18:39:32.847Z,98460.72
2019-05-19T18:45:13.445Z,98469.59
2019-05-19T18:47:45.208Z,98483.20
2019-05-19T18:50:17.057Z,98492.61
2019-05-19T18:53:08.298Z,98504.06
2019-05-19T18:55:39.487Z,98501.18
2019-05-19T18:58:29.577Z,98499.79
2019-05-19T19:01:00.399Z,98496.86
2019-05-19T19:03:31.976Z,98493.66
2019-05-19T19:06:03.647Z,98483.02
2019-05-19T19:08:37.754Z,98479.58
2019-05-19T19:11:27.078Z,98475.75
2019-05-19T19:13:58.359Z,98474.33
2019-05-19T19:16:29.685Z,98474.39
2019-05-19T19:19:00.478Z,98471.61
2019-05-19T19:21:32.106Z,98467.95
2019-05-19T19:24:02.894Z,98471.88
2019-05-19T19:26:33.950Z,98472.38
2019-05-19T19:29:04.812Z,98470.56
2019-05-19T19:31:47.683Z,98467.95
2019-05-19T19:34:08.460Z,98470.59
2019-05-19T19:40:25.116Z,98455.93
2019-05-19T19:42:56.011Z,98465.72
2019-05-19T19:45:26.971Z,98465.72
2019-05-19T19:47:58.163Z,98462.45
2019-05-19T19:50:29.298Z,98451.70
2019-05-19T19:53:00.598Z,98459.88
2019-05-19T19:55:31.977Z,98466.08
2019-05-19T19:58:02.784Z,98453.39
2019-05-19T20:00:42.220Z,98453.39
2019-05-19T20:03:13.350Z,98458.49
2019-05-19T20:05:45.973Z,98458.49
2019-05-19T20:08:16.785Z,98474.30
2019-05-19T20:10:47.652Z,98463.56
2019-05-19T20:13:18.757Z,98467.49
2019-05-19T20:15:50.108Z,98458.33
2019-05-19T20:18:20.922Z,98454.73
2019-05-19T20:20:51.755Z,98456.34
2019-05-19T20:23:22.548Z,98469.27
2019-05-19T20:25:53.433Z,98469.27
2019-05-19T20:28:24.548Z,98487.93
2019-05-19T20:30:56.342Z,98487.93
2019-05-19T20:33:27.684Z,98503.03
2019-05-19T20:35:58.807Z,98492.44
2019-05-19T20:38:29.916Z,98505.03
2019-05-19T20:41:01.184Z,98495.88
2019-05-19T20:43:32.230Z,98506.13
2019-05-19T20:46:03.233Z,98501.55
2019-05-19T20:48:34.078Z,98498.98
2019-05-19T20:51:04.937Z,98499.02
2019-05-19T20:53:36.023Z,98504.97
2019-05-19T20:56:06.797Z,98503.50
2019-05-19T20:58:37.617Z,98504.35
2019-05-19T21:01:08.703Z,98503.39
2019-05-19T21:03:39.519Z,98504.09
2019-05-19T21:06:10.300Z,98503.62
2019-05-19T21:08:41.104Z,98496.01
2019-05-19T21:11:12.180Z,98504.88
2019-05-19T21:13:42.985Z,98508.03
2019-05-19T21:16:13.757Z,98510.13
2019-05-19T21:18:44.272Z,98511.13
2019-05-19T21:21:15.282Z,98511.81
2019-05-19T21:23:46.804Z,98512.11
2019-05-19T21:26:17.597Z,98518.98
2019-05-19T21:28:48.399Z,98516.66
2019-05-19T21:31:19.190Z,98519.11
2019-05-19T21:33:50.551Z,98515.87
2019-05-19T21:36:21.361Z,98522.40
2019-05-19T21:38:52.175Z,98520.63
2019-05-19T21:41:24.372Z,98519.80
2019-05-19T21:43:55.413Z,98526.81
2019-05-19T21:46:26.773Z,98531.02
2019-05-19T21:48:57.826Z,98534.64
2019-05-19T21:51:28.623Z,98540.84
2019-05-19T21:53:59.504Z,98537.40
2019-05-19T21:56:30.769Z,98539.80
2019-05-19T21:59:01.834Z,98534.58
2019-05-19T22:01:32.948Z,98530.81
2019-05-19T22:04:04.092Z,98535.57
2019-05-19T22:06:36.792Z,98532.31
2019-05-19T22:09:08.154Z,98544.09
2019-05-19T22:11:39.726Z,98542.77
2019-05-19T22:14:10.543Z,98559.62
2019-05-19T22:16:41.641Z,98548.34
2019-05-19T22:19:15.674Z,98546.55
2019-05-19T22:21:45.021Z,98552.94
2019-05-19T22:24:16.033Z,98550.82
2019-05-19T22:26:46.836Z,98550.04
2019-05-19T22:29:17.709Z,98546.27
2019-05-19T22:31:48.803Z,98547.73
2019-05-19T22:34:20.667Z,98556.72
2019-05-19T22:36:51.532Z,98548.55
2019-05-19T22:39:22.557Z,98552.31
2019-05-19T22:41:53.373Z,98546.75
2019-05-19T22:44:24.410Z,98547.28
2019-05-19T22:46:55.460Z,98547.13
2019-05-19T22:49:26.461Z,98542.39
2019-05-19T22:51:57.341Z,98538.63
2019-05-19T22:54:28.196Z,98543.69
2019-05-19T22:56:59.976Z,98536.34
2019-05-19T22:59:31.009Z,98528.88
2019-05-19T23:02:01.984Z,98529.86
2019-05-19T23:04:32.841Z,98530.00
2019-05-19T23:07:04.007Z,98539.30
2019-05-19T23:09:35.330Z,98543.55
2019-05-19T23:12:06.204Z,98533.43
2019-05-19T23:14:36.990Z,98527.74
2019-05-19T23:17:08.119Z,98525.27
2019-05-19T23:19:38.900Z,98523.01
2019-05-19T23:22:09.774Z,98520.72
2019-05-19T23:24:40.572Z,98516.46
2019-05-19T23:27:11.459Z,98513.21
2019-05-19T23:29:42.494Z,98514.69
2019-05-19T23:32:13.617Z,98516.81
2019-05-19T23:34:44.401Z,98517.43
2019-05-19T23:37:15.523Z,98523.95
2019-05-19T23:39:46.307Z,98517.11
2019-05-19T23:42:17.116Z,98520.38
2019-05-19T23:44:48.046Z,98522.31
2019-05-19T23:47:19.076Z,98523.63
2019-05-19T23:49:49.863Z,98529.50
2019-05-19T23:52:20.726Z,98522.02
2019-05-19T23:54:51.527Z,98524.94
2019-05-19T23:57:22.343Z,98523.98
2019-05-19T23:59:53.118Z,98530.98
